Flight Track Log - Related Links

Times and Time Zones

All times are in EDT time to prevent confusion due to time zone crossing. See the LOF3416 flight status page for this flight to view local times or setup timezone preferences in your user account.

Time Position Orientation Groundspeed Altitude Reporting Facility
EDT Latitude Longitude Course Direction KTS MPH feet Rate Location/Type
Tue 05:57:04 PM 41.9000 -87.9000 194° South 185 213 3,100  Level Chicago TRACON
Tue 05:58:40 PM 41.8108 -87.9428 200° South 230 265 6,000 1,861 Climbing Chicago Center
Tue 05:59:42 PM 41.7464 -87.9822 205° Southwest 254 292 8,000 1,887 Climbing Chicago Center
Tue 06:00:44 PM 41.6742 -88.0236 203° Southwest 282 325 9,900 1,790 Climbing Chicago Center
Tue 06:01:46 PM 41.6000 -88.0658 203° Southwest 290 334 11,700 1,728 Climbing Chicago Center
Tue 06:02:00 PM 41.3917 -88.1639 194° South  Level FlightAware Approximate
Tue 06:02:49 PM 41.5086 -88.1206 204° Southwest 305 351 13,500  Level Chicago Center
Tue 06:03:51 PM 41.4297 -88.1661 203° Southwest 320 368 14,900 1,258 Climbing Chicago Center
Tue 06:04:53 PM 41.3458 -88.2072 200° South 329 379 16,100 1,161 Climbing Chicago Center
Tue 06:05:55 PM 41.2575 -88.2461 198° South 337 388 17,300 1,161 Climbing Chicago Center
Tue 06:06:57 PM 41.1497 -88.2953 199° South 344 396 18,500 1,161 Climbing Chicago Center
Tue 06:07:59 PM 41.0569 -88.3375 199° South 353 406 19,700 1,113 Climbing Chicago Center
Tue 06:09:01 PM 40.9625 -88.3794 199° South 360 414 20,800 1,161 Climbing Chicago Center
Tue 06:10:03 PM 40.8653 -88.4233 199° South 368 423 22,100 1,403 Climbing Chicago Center
Tue 06:11:05 PM 40.7689 -88.4669 199° South 370 426 23,700 1,500 Climbing Chicago Center
Tue 06:12:07 PM 40.6761 -88.5642 218° Southwest 365 420 25,200 1,200 Climbing Chicago Center
Tue 06:13:10 PM 40.6072 -88.6686 229° Southwest 377 434 26,200 960 Climbing Chicago Center
Tue 06:14:12 PM 40.5367 -88.7739 229° Southwest 384 442 27,200 871 Climbing Chicago Center
Tue 06:15:14 PM 40.4556 -88.8950 229° Southwest 393 452 28,000 387 Climbing Chicago Center
Tue 06:16:16 PM 40.3811 -89.0081 229° Southwest 405 466 28,000  Level Chicago Center
Tue 06:17:18 PM 40.3000 -89.1269 228° Southwest 426 490 28,000  Level Chicago Center
Tue 06:18:20 PM 40.2178 -89.2511 229° Southwest 445 512 28,000 48 Level Chicago Center
Tue 06:19:22 PM 40.1333 -89.3761 229° Southwest 454 522 28,100 649 Climbing Chicago Center
Tue 06:20:11 PM 40.0661 -89.4742 228° Southwest 451 519 29,200 1,274 Climbing Kansas City Center
Tue 06:21:15 PM 39.9869 -89.5900 228° Southwest 435 501 30,500 1,161 Climbing Kansas City Center
Tue 06:22:15 PM 39.9106 -89.7031 229° Southwest 421 484 31,600 726 Climbing Kansas City Center
Tue 06:23:19 PM 39.8172 -89.8397 228° Southwest 419 482 32,000 194 Climbing Kansas City Center
Tue 06:24:19 PM 39.7350 -89.9575 228° Southwest 431 496 32,000  Level Kansas City Center
Tue 06:25:21 PM 39.6489 -90.0853 229° Southwest 446 513 32,000  Level Kansas City Center
Tue 06:26:23 PM 39.5661 -90.2067 229° Southwest 450 518 32,000  Level Kansas City Center
Tue 06:27:26 PM 39.4819 -90.3303 229° Southwest 457 526 32,000  Level Kansas City Center
Tue 06:28:27 PM 39.3981 -90.4497 228° Southwest 455 524 32,000  Level Kansas City Center
Tue 06:29:28 PM 39.3144 -90.5689 228° Southwest 451 519 32,000  Level Kansas City Center
Tue 06:30:32 PM 39.2161 -90.7094 228° Southwest 447 514 32,000  Level Kansas City Center
Tue 06:31:33 PM 39.1361 -90.8244 228° Southwest 439 505 32,000  Level Kansas City Center
Tue 06:32:37 PM 39.0528 -90.9403 227° Southwest 443 510 32,000  Level Kansas City Center
Tue 06:33:38 PM 38.9706 -91.0581 228° Southwest 445 512 32,000  Level Kansas City Center
Tue 06:34:39 PM 38.8881 -91.1747 228° Southwest 445 512 32,000  Level Kansas City Center
Tue 06:35:43 PM 38.7869 -91.3142 227° Southwest 447 514 32,000  Level Kansas City Center
Tue 06:36:43 PM 38.7081 -91.4358 230° Southwest 447 514 32,000 -446 Level Kansas City Center
Tue 06:37:44 PM 38.6442 -91.5589 236° Southwest 451 519 31,100 -1,258 Descending Kansas City Center
Tue 06:38:47 PM 38.5572 -91.7208 236° Southwest 458 527 29,400 -1,463 Descending Kansas City Center
Tue 06:39:47 PM 38.4875 -91.8525 236° Southwest 451 519 28,100 -1,258 Descending Kansas City Center
Tue 06:40:51 PM 38.4156 -91.9833 235° Southwest 450 518 26,800 -1,306 Descending Kansas City Center
Tue 06:41:51 PM 38.3406 -92.1194 235° Southwest 465 535 25,400 -1,306 Descending Kansas City Center
Tue 06:42:55 PM 38.2731 -92.2547 238° Southwest 459 528 24,100 -1,536 Descending Kansas City Center
Tue 06:43:56 PM 38.2075 -92.3833 237° Southwest 444 511 22,200 -2,177 Descending Kansas City Center
Tue 06:44:59 PM 38.1397 -92.5222 238° Southwest 432 497 19,600 -2,274 Descending Kansas City Center
Tue 06:46:00 PM 38.0756 -92.6475 237° Southwest 426 490 17,500 -1,756 Descending Kansas City Center
Tue 06:47:02 PM 38.0086 -92.7750 236° Southwest 404 465 16,000 -912 Descending Kansas City Center
Tue 06:48:05 PM 37.9256 -92.8558 218° Southwest 383 441 15,600 -1,016 Descending Kansas City Center
Tue 06:49:06 PM 37.8381 -92.9289 213° Southwest 380 437 13,900 -1,820 Descending Kansas City Center
Tue 06:50:07 PM 37.7519 -93.0031 214° Southwest 377 434 11,900 -1,728 Descending Kansas City Center
Tue 06:51:11 PM 37.6553 -93.0842 214° Southwest 358 412 10,300 -1,392 Descending Kansas City Center
Tue 06:52:12 PM 37.5903 -93.1403 214° Southwest 312 359 9,000 -1,131 Descending Kansas City Center
Tue 06:53:13 PM 37.5283 -93.1958 215° Southwest 282 325 8,000 -484 Descending Kansas City Center
Tue 06:54:16 PM 37.4603 -93.2347 204° Southwest 269 310 8,000  Level Kansas City Center
Tue 06:55:17 PM 37.3900 -93.2753 205° Southwest 273 314 8,000 -683 Level Kansas City Center
Tue 06:56:19 PM 37.3217 -93.3142 204° Southwest 272 313 6,600 -1,268 Descending Kansas City Center
Tue 06:57:20 PM 37.2506 -93.3497 202° Southwest 245 282 5,400 -1,584 Descending Kansas City Center
Tue 06:58:24 PM 37.1994 -93.3536 183° South 204 235 3,300 -1,488 Descending Kansas City Center
Tue 06:59:25 PM 37.1936 -93.3939 260° West 186 214 2,300 -927 Descending Kansas City Center
Tue 07:00:27 PM 37.2314 -93.3914 North 159 183 1,400 -871 Descending Kansas City Center
Tue 07:02:00 PM 37.2333 -93.3833 North  Level FlightAware Approximate

Login

Don't have an account? Register now (free) for customized features, flight alerts, and more!